sensor_id;sensor_type;location;lat;lon;timestamp;temperature;humidity
73586;DHT22;61865;50.232;18.614;2022-11-20T00:01:55;-8.60;99.90
73586;DHT22;61865;50.232;18.614;2022-11-20T00:04:17;-8.80;99.90
73586;DHT22;61865;50.232;18.614;2022-11-20T00:06:39;-9.10;99.90
73586;DHT22;61865;50.232;18.614;2022-11-20T00:09:01;-9.30;99.90
73586;DHT22;61865;50.232;18.614;2022-11-20T00:11:26;-9.40;99.90
73586;DHT22;61865;50.232;18.614;2022-11-20T00:13:50;-9.40;99.90
73586;DHT22;61865;50.232;18.614;2022-11-20T00:16:14;-9.40;99.90
73586;DHT22;61865;50.232;18.614;2022-11-20T00:18:36;-9.40;99.90
73586;DHT22;61865;50.232;18.614;2022-11-20T00:21:01;-9.60;99.90
73586;DHT22;61865;50.232;18.614;2022-11-20T00:23:23;-9.70;97.00
73586;DHT22;61865;50.232;18.614;2022-11-20T00:25:45;-9.80;99.90
73586;DHT22;61865;50.232;18.614;2022-11-20T00:28:08;-9.70;99.90
73586;DHT22;61865;50.232;18.614;2022-11-20T00:30:30;-9.80;99.90
73586;DHT22;61865;50.232;18.614;2022-11-20T00:32:52;-9.90;99.90
73586;DHT22;61865;50.232;18.614;2022-11-20T00:35:14;-9.90;99.90
73586;DHT22;61865;50.232;18.614;2022-11-20T00:37:36;-9.90;99.90
73586;DHT22;61865;50.232;18.614;2022-11-20T00:39:58;-10.10;97.90
73586;DHT22;61865;50.232;18.614;2022-11-20T00:42:20;-10.20;98.00
73586;DHT22;61865;50.232;18.614;2022-11-20T00:44:43;-10.20;99.90
73586;DHT22;61865;50.232;18.614;2022-11-20T00:47:05;-10.20;99.90
73586;DHT22;61865;50.232;18.614;2022-11-20T00:49:27;-10.20;99.90
73586;DHT22;61865;50.232;18.614;2022-11-20T00:51:49;-10.20;98.00
73586;DHT22;61865;50.232;18.614;2022-11-20T00:54:11;-10.30;98.10
73586;DHT22;61865;50.232;18.614;2022-11-20T00:56:32;-10.40;99.70
73586;DHT22;61865;50.232;18.614;2022-11-20T00:58:55;-10.40;95.40
73586;DHT22;61865;50.232;18.614;2022-11-20T01:01:19;-10.50;94.70
73586;DHT22;61865;50.232;18.614;2022-11-20T01:03:43;-10.60;95.40
73586;DHT22;61865;50.232;18.614;2022-11-20T01:06:07;-10.70;94.70
73586;DHT22;61865;50.232;18.614;2022-11-20T01:08:30;-10.80;93.80
73586;DHT22;61865;50.232;18.614;2022-11-20T01:10:53;-10.80;94.60
73586;DHT22;61865;50.232;18.614;2022-11-20T01:13:19;-10.80;95.70
73586;DHT22;61865;50.232;18.614;2022-11-20T01:16:02;-10.70;99.90
73586;DHT22;61865;50.232;18.614;2022-11-20T01:18:25;-10.60;99.90
73586;DHT22;61865;50.232;18.614;2022-11-20T01:20:47;-10.60;99.90
73586;DHT22;61865;50.232;18.614;2022-11-20T01:23:12;-10.50;99.90
73586;DHT22;61865;50.232;18.614;2022-11-20T01:25:34;-10.30;99.90
73586;DHT22;61865;50.232;18.614;2022-11-20T01:27:56;-10.30;99.90
73586;DHT22;61865;50.232;18.614;2022-11-20T01:30:18;-10.20;99.90
73586;DHT22;61865;50.232;18.614;2022-11-20T01:32:40;-10.20;99.90
73586;DHT22;61865;50.232;18.614;2022-11-20T01:35:04;-10.20;99.90
73586;DHT22;61865;50.232;18.614;2022-11-20T01:37:26;-10.20;99.90
73586;DHT22;61865;50.232;18.614;2022-11-20T01:39:48;-10.10;99.90
73586;DHT22;61865;50.232;18.614;2022-11-20T01:42:10;-10.00;99.90
73586;DHT22;61865;50.232;18.614;2022-11-20T01:44:53;-9.90;99.90
73586;DHT22;61865;50.232;18.614;2022-11-20T01:47:17;-9.70;99.90
73586;DHT22;61865;50.232;18.614;2022-11-20T01:49:45;-9.60;99.90
73586;DHT22;61865;50.232;18.614;2022-11-20T01:52:14;-9.60;99.90
73586;DHT22;61865;50.232;18.614;2022-11-20T01:54:42;-9.60;99.90
73586;DHT22;61865;50.232;18.614;2022-11-20T01:57:07;-9.40;99.90
73586;DHT22;61865;50.232;18.614;2022-11-20T01:59:31;-9.30;99.90
73586;DHT22;61865;50.232;18.614;2022-11-20T02:01:54;-9.20;99.90
73586;DHT22;61865;50.232;18.614;2022-11-20T02:04:16;-9.00;99.90
73586;DHT22;61865;50.232;18.614;2022-11-20T02:06:42;-9.00;99.90
73586;DHT22;61865;50.232;18.614;2022-11-20T02:09:05;-8.90;99.90
73586;DHT22;61865;50.232;18.614;2022-11-20T02:11:27;-8.80;99.90
73586;DHT22;61865;50.232;18.614;2022-11-20T02:13:49;-8.80;99.90
73586;DHT22;61865;50.232;18.614;2022-11-20T02:16:17;-8.90;99.90
73586;DHT22;61865;50.232;18.614;2022-11-20T02:18:40;-9.20;99.90
73586;DHT22;61865;50.232;18.614;2022-11-20T02:21:07;-9.40;99.90
73586;DHT22;61865;50.232;18.614;2022-11-20T02:23:34;-9.60;99.90
73586;DHT22;61865;50.232;18.614;2022-11-20T02:26:01;-9.70;99.90
73586;DHT22;61865;50.232;18.614;2022-11-20T02:28:24;-9.70;99.90
73586;DHT22;61865;50.232;18.614;2022-11-20T02:30:46;-9.90;99.90
73586;DHT22;61865;50.232;18.614;2022-11-20T02:33:08;-9.90;99.90
73586;DHT22;61865;50.232;18.614;2022-11-20T02:35:48;-9.90;99.90
73586;DHT22;61865;50.232;18.614;2022-11-20T02:38:10;-9.90;99.90
73586;DHT22;61865;50.232;18.614;2022-11-20T02:40:32;-10.00;99.90
73586;DHT22;61865;50.232;18.614;2022-11-20T02:42:56;-10.10;99.90
73586;DHT22;61865;50.232;18.614;2022-11-20T02:45:18;-10.00;99.90
73586;DHT22;61865;50.232;18.614;2022-11-20T02:47:40;-9.90;99.90
73586;DHT22;61865;50.232;18.614;2022-11-20T02:50:03;-9.90;99.90
73586;DHT22;61865;50.232;18.614;2022-11-20T02:52:25;-9.70;99.90
73586;DHT22;61865;50.232;18.614;2022-11-20T02:54:47;-9.70;99.90
73586;DHT22;61865;50.232;18.614;2022-11-20T02:57:09;-9.70;99.90
73586;DHT22;61865;50.232;18.614;2022-11-20T02:59:32;-9.70;99.90
73586;DHT22;61865;50.232;18.614;2022-11-20T03:01:54;-9.80;99.90
73586;DHT22;61865;50.232;18.614;2022-11-20T03:04:16;-9.70;99.90
73586;DHT22;61865;50.232;18.614;2022-11-20T03:06:38;-9.80;99.90
73586;DHT22;61865;50.232;18.614;2022-11-20T03:09:00;-9.80;99.90
73586;DHT22;61865;50.232;18.614;2022-11-20T03:11:22;-9.80;99.90
73586;DHT22;61865;50.232;18.614;2022-11-20T03:13:44;-9.70;99.90
73586;DHT22;61865;50.232;18.614;2022-11-20T03:16:09;-9.70;99.90
73586;DHT22;61865;50.232;18.614;2022-11-20T03:18:32;-9.80;99.90
73586;DHT22;61865;50.232;18.614;2022-11-20T03:20:57;-9.80;99.90
73586;DHT22;61865;50.232;18.614;2022-11-20T03:23:19;-9.70;99.90
73586;DHT22;61865;50.232;18.614;2022-11-20T03:25:41;-9.70;99.90
73586;DHT22;61865;50.232;18.614;2022-11-20T03:28:03;-9.60;99.90
73586;DHT22;61865;50.232;18.614;2022-11-20T03:30:25;-9.70;99.90
73586;DHT22;61865;50.232;18.614;2022-11-20T03:32:48;-9.70;99.90
73586;DHT22;61865;50.232;18.614;2022-11-20T03:35:10;-9.60;99.90
73586;DHT22;61865;50.232;18.614;2022-11-20T03:37:32;-9.70;99.90
73586;DHT22;61865;50.232;18.614;2022-11-20T03:39:54;-9.80;99.90
73586;DHT22;61865;50.232;18.614;2022-11-20T03:42:16;-10.00;99.90
73586;DHT22;61865;50.232;18.614;2022-11-20T03:44:52;-10.20;97.90
73586;DHT22;61865;50.232;18.614;2022-11-20T03:47:13;-10.40;99.00
73586;DHT22;61865;50.232;18.614;2022-11-20T03:49:38;-10.50;99.20
73586;DHT22;61865;50.232;18.614;2022-11-20T03:52:00;-10.60;99.90
73586;DHT22;61865;50.232;18.614;2022-11-20T03:54:22;-10.60;98.00
73586;DHT22;61865;50.232;18.614;2022-11-20T03:56:44;-10.60;99.90
73586;DHT22;61865;50.232;18.614;2022-11-20T03:59:06;-10.50;99.90
73586;DHT22;61865;50.232;18.614;2022-11-20T04:01:30;-10.50;99.90
73586;DHT22;61865;50.232;18.614;2022-11-20T04:03:54;-10.60;99.80
73586;DHT22;61865;50.232;18.614;2022-11-20T04:06:19;-10.80;99.90
73586;DHT22;61865;50.232;18.614;2022-11-20T04:08:41;-10.80;99.90
73586;DHT22;61865;50.232;18.614;2022-11-20T04:11:11;-10.90;99.90
73586;DHT22;61865;50.232;18.614;2022-11-20T04:13:33;-10.80;99.90
73586;DHT22;61865;50.232;18.614;2022-11-20T04:15:57;-10.70;99.90
73586;DHT22;61865;50.232;18.614;2022-11-20T04:18:19;-10.50;99.90
73586;DHT22;61865;50.232;18.614;2022-11-20T04:20:41;-10.30;99.90
73586;DHT22;61865;50.232;18.614;2022-11-20T04:23:04;-10.20;99.90
73586;DHT22;61865;50.232;18.614;2022-11-20T04:25:26;-10.10;99.90
73586;DHT22;61865;50.232;18.614;2022-11-20T04:27:48;-10.10;99.90
73586;DHT22;61865;50.232;18.614;2022-11-20T04:30:11;-10.00;99.90
73586;DHT22;61865;50.232;18.614;2022-11-20T04:32:33;-9.90;99.90
73586;DHT22;61865;50.232;18.614;2022-11-20T04:34:55;-9.80;99.90
73586;DHT22;61865;50.232;18.614;2022-11-20T04:37:16;-9.70;99.90
73586;DHT22;61865;50.232;18.614;2022-11-20T04:39:40;-9.60;99.90
73586;DHT22;61865;50.232;18.614;2022-11-20T04:42:02;-9.40;99.90
73586;DHT22;61865;50.232;18.614;2022-11-20T04:44:41;-9.40;99.90
73586;DHT22;61865;50.232;18.614;2022-11-20T04:47:03;-9.30;99.90
73586;DHT22;61865;50.232;18.614;2022-11-20T04:49:25;-9.40;99.90
73586;DHT22;61865;50.232;18.614;2022-11-20T04:51:47;-9.60;99.90
73586;DHT22;61865;50.232;18.614;2022-11-20T04:54:11;-9.70;99.90
73586;DHT22;61865;50.232;18.614;2022-11-20T04:56:34;-9.80;99.90
73586;DHT22;61865;50.232;18.614;2022-11-20T04:59:00;-9.70;99.90
73586;DHT22;61865;50.232;18.614;2022-11-20T05:01:23;-9.80;99.90
73586;DHT22;61865;50.232;18.614;2022-11-20T05:03:45;-9.90;99.90
73586;DHT22;61865;50.232;18.614;2022-11-20T05:06:08;-10.00;99.90
73586;DHT22;61865;50.232;18.614;2022-11-20T05:08:31;-10.20;98.60
73586;DHT22;61865;50.232;18.614;2022-11-20T05:10:53;-10.40;96.90
73586;DHT22;61865;50.232;18.614;2022-11-20T05:13:16;-10.50;95.60
73586;DHT22;61865;50.232;18.614;2022-11-20T05:15:38;-10.70;96.10
73586;DHT22;61865;50.232;18.614;2022-11-20T05:18:01;-10.80;96.00
73586;DHT22;61865;50.232;18.614;2022-11-20T05:20:22;-10.90;99.90
73586;DHT22;61865;50.232;18.614;2022-11-20T05:22:44;-10.90;99.90
73586;DHT22;61865;50.232;18.614;2022-11-20T05:25:07;-10.90;99.90
73586;DHT22;61865;50.232;18.614;2022-11-20T05:27:29;-10.90;99.90
73586;DHT22;61865;50.232;18.614;2022-11-20T05:29:52;-11.00;99.90
73586;DHT22;61865;50.232;18.614;2022-11-20T05:32:14;-11.00;99.90
73586;DHT22;61865;50.232;18.614;2022-11-20T05:34:36;-11.20;96.60
73586;DHT22;61865;50.232;18.614;2022-11-20T05:36:58;-11.30;97.10
73586;DHT22;61865;50.232;18.614;2022-11-20T05:39:20;-11.30;97.90
73586;DHT22;61865;50.232;18.614;2022-11-20T05:41:41;-11.40;96.60
73586;DHT22;61865;50.232;18.614;2022-11-20T05:44:04;-11.50;94.60
73586;DHT22;61865;50.232;18.614;2022-11-20T05:46:27;-11.50;99.90
73586;DHT22;61865;50.232;18.614;2022-11-20T05:48:49;-11.40;99.90
73586;DHT22;61865;50.232;18.614;2022-11-20T05:51:13;-11.10;99.90
73586;DHT22;61865;50.232;18.614;2022-11-20T05:53:36;-10.80;99.90
73586;DHT22;61865;50.232;18.614;2022-11-20T05:55:59;-10.60;99.90
73586;DHT22;61865;50.232;18.614;2022-11-20T05:58:21;-10.30;99.90
73586;DHT22;61865;50.232;18.614;2022-11-20T06:00:43;-10.20;99.90
73586;DHT22;61865;50.232;18.614;2022-11-20T06:03:06;-10.10;99.90
73586;DHT22;61865;50.232;18.614;2022-11-20T06:05:28;-10.00;99.90
73586;DHT22;61865;50.232;18.614;2022-11-20T06:07:50;-9.90;99.90
73586;DHT22;61865;50.232;18.614;2022-11-20T06:10:12;-9.80;99.90
73586;DHT22;61865;50.232;18.614;2022-11-20T06:12:34;-9.60;99.90
73586;DHT22;61865;50.232;18.614;2022-11-20T06:14:55;-9.60;99.90
73586;DHT22;61865;50.232;18.614;2022-11-20T06:17:17;-9.60;99.90
73586;DHT22;61865;50.232;18.614;2022-11-20T06:19:41;-9.50;99.90
73586;DHT22;61865;50.232;18.614;2022-11-20T06:22:03;-9.30;99.90
73586;DHT22;61865;50.232;18.614;2022-11-20T06:24:25;-9.30;99.90
73586;DHT22;61865;50.232;18.614;2022-11-20T06:26:47;-9.40;99.90
73586;DHT22;61865;50.232;18.614;2022-11-20T06:29:09;-9.40;99.90
73586;DHT22;61865;50.232;18.614;2022-11-20T06:31:30;-9.50;99.90
73586;DHT22;61865;50.232;18.614;2022-11-20T06:33:57;-9.50;99.90
73586;DHT22;61865;50.232;18.614;2022-11-20T06:36:21;-9.50;99.90
73586;DHT22;61865;50.232;18.614;2022-11-20T06:38:44;-9.40;99.90
73586;DHT22;61865;50.232;18.614;2022-11-20T06:41:06;-9.40;99.90
73586;DHT22;61865;50.232;18.614;2022-11-20T06:43:29;-9.30;99.90
73586;DHT22;61865;50.232;18.614;2022-11-20T06:45:52;-9.40;99.90
73586;DHT22;61865;50.232;18.614;2022-11-20T06:48:14;-9.50;99.90
73586;DHT22;61865;50.232;18.614;2022-11-20T06:50:36;-9.50;99.90
73586;DHT22;61865;50.232;18.614;2022-11-20T06:53:02;-9.40;99.90
73586;DHT22;61865;50.232;18.614;2022-11-20T06:55:24;-9.30;99.90
73586;DHT22;61865;50.232;18.614;2022-11-20T06:57:46;-9.20;99.90
73586;DHT22;61865;50.232;18.614;2022-11-20T07:00:09;-9.20;99.90
73586;DHT22;61865;50.232;18.614;2022-11-20T07:02:31;-9.20;99.90
73586;DHT22;61865;50.232;18.614;2022-11-20T07:04:52;-9.30;99.90
73586;DHT22;61865;50.232;18.614;2022-11-20T07:07:14;-9.30;99.90
73586;DHT22;61865;50.232;18.614;2022-11-20T07:09:38;-9.20;99.90
73586;DHT22;61865;50.232;18.614;2022-11-20T07:12:00;-9.00;99.90
73586;DHT22;61865;50.232;18.614;2022-11-20T07:14:22;-8.80;99.90
73586;DHT22;61865;50.232;18.614;2022-11-20T07:16:43;-8.60;99.90
73586;DHT22;61865;50.232;18.614;2022-11-20T07:19:05;-8.50;99.90
73586;DHT22;61865;50.232;18.614;2022-11-20T07:21:27;-8.30;99.90
73586;DHT22;61865;50.232;18.614;2022-11-20T07:23:49;-8.20;99.90
73586;DHT22;61865;50.232;18.614;2022-11-20T07:26:12;-8.00;99.90
73586;DHT22;61865;50.232;18.614;2022-11-20T07:28:34;-7.90;99.90
73586;DHT22;61865;50.232;18.614;2022-11-20T07:30:56;-7.80;99.90
73586;DHT22;61865;50.232;18.614;2022-11-20T07:33:18;-7.60;99.90
73586;DHT22;61865;50.232;18.614;2022-11-20T07:35:40;-7.40;99.90
73586;DHT22;61865;50.232;18.614;2022-11-20T07:38:02;-7.20;99.90
73586;DHT22;61865;50.232;18.614;2022-11-20T07:40:24;-7.10;99.90
73586;DHT22;61865;50.232;18.614;2022-11-20T07:42:51;-7.00;99.90
73586;DHT22;61865;50.232;18.614;2022-11-20T07:45:14;-6.80;99.90
73586;DHT22;61865;50.232;18.614;2022-11-20T07:47:36;-6.70;99.90
73586;DHT22;61865;50.232;18.614;2022-11-20T07:49:58;-6.70;99.90
73586;DHT22;61865;50.232;18.614;2022-11-20T07:52:20;-6.80;99.90
73586;DHT22;61865;50.232;18.614;2022-11-20T07:54:42;-6.80;99.90
73586;DHT22;61865;50.232;18.614;2022-11-20T07:57:04;-6.80;99.90
73586;DHT22;61865;50.232;18.614;2022-11-20T07:59:27;-6.70;99.90
73586;DHT22;61865;50.232;18.614;2022-11-20T08:01:49;-6.60;99.90
73586;DHT22;61865;50.232;18.614;2022-11-20T08:04:11;-6.50;99.90
73586;DHT22;61865;50.232;18.614;2022-11-20T08:06:34;-6.40;99.90
73586;DHT22;61865;50.232;18.614;2022-11-20T08:08:56;-6.30;99.90
73586;DHT22;61865;50.232;18.614;2022-11-20T08:11:18;-6.10;99.90
73586;DHT22;61865;50.232;18.614;2022-11-20T08:13:57;-6.00;99.90
73586;DHT22;61865;50.232;18.614;2022-11-20T08:16:36;-5.80;99.90
73586;DHT22;61865;50.232;18.614;2022-11-20T08:18:58;-5.60;99.90
73586;DHT22;61865;50.232;18.614;2022-11-20T08:21:20;-5.50;99.90
73586;DHT22;61865;50.232;18.614;2022-11-20T08:23:42;-5.30;99.90
73586;DHT22;61865;50.232;18.614;2022-11-20T08:26:04;-5.20;99.90
73586;DHT22;61865;50.232;18.614;2022-11-20T08:28:26;-5.10;99.90
73586;DHT22;61865;50.232;18.614;2022-11-20T08:30:48;-5.00;99.90
73586;DHT22;61865;50.232;18.614;2022-11-20T08:33:12;-4.90;99.90
73586;DHT22;61865;50.232;18.614;2022-11-20T08:35:35;-4.80;99.90
73586;DHT22;61865;50.232;18.614;2022-11-20T08:37:58;-4.70;99.90
73586;DHT22;61865;50.232;18.614;2022-11-20T08:40:20;-4.60;99.90
73586;DHT22;61865;50.232;18.614;2022-11-20T08:42:46;-4.50;99.90
73586;DHT22;61865;50.232;18.614;2022-11-20T08:45:09;-4.30;99.90
73586;DHT22;61865;50.232;18.614;2022-11-20T08:47:31;-4.20;99.90
73586;DHT22;61865;50.232;18.614;2022-11-20T08:49:54;-4.00;99.90
73586;DHT22;61865;50.232;18.614;2022-11-20T08:52:16;-3.90;99.90
73586;DHT22;61865;50.232;18.614;2022-11-20T08:54:38;-3.80;99.90
73586;DHT22;61865;50.232;18.614;2022-11-20T08:57:00;-3.70;99.90
73586;DHT22;61865;50.232;18.614;2022-11-20T08:59:21;-3.60;99.90
73586;DHT22;61865;50.232;18.614;2022-11-20T09:01:43;-3.50;99.90
73586;DHT22;61865;50.232;18.614;2022-11-20T09:04:06;-3.40;99.90
73586;DHT22;61865;50.232;18.614;2022-11-20T09:06:29;-3.30;99.90
73586;DHT22;61865;50.232;18.614;2022-11-20T09:08:52;-3.20;99.90
73586;DHT22;61865;50.232;18.614;2022-11-20T09:11:14;-3.20;99.90
73586;DHT22;61865;50.232;18.614;2022-11-20T09:13:36;-3.10;99.90
73586;DHT22;61865;50.232;18.614;2022-11-20T09:15:59;-2.90;99.90
73586;DHT22;61865;50.232;18.614;2022-11-20T09:18:21;-2.80;99.90
73586;DHT22;61865;50.232;18.614;2022-11-20T09:20:43;-2.80;99.90
73586;DHT22;61865;50.232;18.614;2022-11-20T09:23:07;-2.70;99.90
73586;DHT22;61865;50.232;18.614;2022-11-20T09:25:29;-2.60;99.90
73586;DHT22;61865;50.232;18.614;2022-11-20T09:27:55;-2.60;99.90
73586;DHT22;61865;50.232;18.614;2022-11-20T09:30:17;-2.50;99.90
73586;DHT22;61865;50.232;18.614;2022-11-20T09:32:41;-2.40;99.90
73586;DHT22;61865;50.232;18.614;2022-11-20T09:35:04;-2.30;99.90
73586;DHT22;61865;50.232;18.614;2022-11-20T09:37:26;-2.20;99.90
73586;DHT22;61865;50.232;18.614;2022-11-20T09:39:49;-2.10;99.90
73586;DHT22;61865;50.232;18.614;2022-11-20T09:42:26;-2.00;99.90
73586;DHT22;61865;50.232;18.614;2022-11-20T09:45:02;-1.90;99.90
73586;DHT22;61865;50.232;18.614;2022-11-20T09:47:36;-1.80;99.90
73586;DHT22;61865;50.232;18.614;2022-11-20T09:50:19;-1.70;99.90
73586;DHT22;61865;50.232;18.614;2022-11-20T09:52:57;-1.60;99.90
73586;DHT22;61865;50.232;18.614;2022-11-20T09:55:25;-1.50;99.90
73586;DHT22;61865;50.232;18.614;2022-11-20T09:57:48;-1.40;99.90
73586;DHT22;61865;50.232;18.614;2022-11-20T10:00:14;-1.30;99.90
73586;DHT22;61865;50.232;18.614;2022-11-20T10:02:41;-1.20;99.90
73586;DHT22;61865;50.232;18.614;2022-11-20T10:05:09;-1.20;99.90
73586;DHT22;61865;50.232;18.614;2022-11-20T10:07:39;-1.10;99.90
73586;DHT22;61865;50.232;18.614;2022-11-20T10:10:03;-1.00;99.90
73586;DHT22;61865;50.232;18.614;2022-11-20T10:12:38;-1.00;99.90
73586;DHT22;61865;50.232;18.614;2022-11-20T10:15:24;-1.00;99.90
73586;DHT22;61865;50.232;18.614;2022-11-20T10:17:59;-0.80;99.90
73586;DHT22;61865;50.232;18.614;2022-11-20T10:20:29;-0.80;99.90
73586;DHT22;61865;50.232;18.614;2022-11-20T10:23:02;-0.80;99.90
73586;DHT22;61865;50.232;18.614;2022-11-20T10:25:37;-0.70;99.90
73586;DHT22;61865;50.232;18.614;2022-11-20T10:28:10;-0.70;99.90
73586;DHT22;61865;50.232;18.614;2022-11-20T10:30:41;-0.70;99.90
73586;DHT22;61865;50.232;18.614;2022-11-20T10:33:06;-0.60;99.90
73586;DHT22;61865;50.232;18.614;2022-11-20T10:35:35;-0.60;99.90
73586;DHT22;61865;50.232;18.614;2022-11-20T10:38:03;-0.50;99.90
73586;DHT22;61865;50.232;18.614;2022-11-20T10:40:32;-0.50;99.90
73586;DHT22;61865;50.232;18.614;2022-11-20T10:42:57;-0.40;99.90
73586;DHT22;61865;50.232;18.614;2022-11-20T10:45:47;-0.40;99.90
73586;DHT22;61865;50.232;18.614;2022-11-20T10:48:15;-0.30;99.90
73586;DHT22;61865;50.232;18.614;2022-11-20T10:50:48;-0.30;99.90
73586;DHT22;61865;50.232;18.614;2022-11-20T10:53:18;-0.20;99.90
73586;DHT22;61865;50.232;18.614;2022-11-20T10:55:46;-0.10;99.90
73586;DHT22;61865;50.232;18.614;2022-11-20T10:58:14;-0.10;99.90
73586;DHT22;61865;50.232;18.614;2022-11-20T11:00:37;0.00;99.90
73586;DHT22;61865;50.232;18.614;2022-11-20T11:02:59;0.00;99.90
73586;DHT22;61865;50.232;18.614;2022-11-20T11:05:32;0.10;99.90
73586;DHT22;61865;50.232;18.614;2022-11-20T11:07:56;0.20;99.90
73586;DHT22;61865;50.232;18.614;2022-11-20T11:10:23;0.20;99.90
73586;DHT22;61865;50.232;18.614;2022-11-20T11:12:47;0.20;99.90
73586;DHT22;61865;50.232;18.614;2022-11-20T11:15:13;0.20;99.90
73586;DHT22;61865;50.232;18.614;2022-11-20T11:17:46;0.30;99.90
73586;DHT22;61865;50.232;18.614;2022-11-20T11:20:15;0.40;99.90
73586;DHT22;61865;50.232;18.614;2022-11-20T11:22:46;0.50;99.90
73586;DHT22;61865;50.232;18.614;2022-11-20T11:25:22;0.60;99.90
73586;DHT22;61865;50.232;18.614;2022-11-20T11:27:46;0.60;99.90
73586;DHT22;61865;50.232;18.614;2022-11-20T11:30:13;0.70;99.90
73586;DHT22;61865;50.232;18.614;2022-11-20T11:32:37;0.80;99.90
73586;DHT22;61865;50.232;18.614;2022-11-20T11:35:00;0.90;99.90
73586;DHT22;61865;50.232;18.614;2022-11-20T11:37:32;1.00;99.90
73586;DHT22;61865;50.232;18.614;2022-11-20T11:39:54;1.00;99.90
73586;DHT22;61865;50.232;18.614;2022-11-20T11:42:18;1.10;99.90
73586;DHT22;61865;50.232;18.614;2022-11-20T11:44:44;1.10;99.90
73586;DHT22;61865;50.232;18.614;2022-11-20T11:47:25;1.10;99.90
73586;DHT22;61865;50.232;18.614;2022-11-20T11:49:59;1.10;99.90
73586;DHT22;61865;50.232;18.614;2022-11-20T11:52:22;1.20;99.90
73586;DHT22;61865;50.232;18.614;2022-11-20T11:54:49;1.20;99.90
73586;DHT22;61865;50.232;18.614;2022-11-20T11:57:20;1.30;99.90
73586;DHT22;61865;50.232;18.614;2022-11-20T11:59:54;1.40;99.90
73586;DHT22;61865;50.232;18.614;2022-11-20T12:02:29;1.50;99.90
73586;DHT22;61865;50.232;18.614;2022-11-20T12:04:57;1.60;99.90
73586;DHT22;61865;50.232;18.614;2022-11-20T12:07:32;1.70;99.90
73586;DHT22;61865;50.232;18.614;2022-11-20T12:09:57;1.90;99.90
73586;DHT22;61865;50.232;18.614;2022-11-20T12:12:23;2.00;99.90
73586;DHT22;61865;50.232;18.614;2022-11-20T12:14:47;2.00;99.90
73586;DHT22;61865;50.232;18.614;2022-11-20T12:17:12;2.00;99.90
73586;DHT22;61865;50.232;18.614;2022-11-20T12:19:34;1.90;99.90
73586;DHT22;61865;50.232;18.614;2022-11-20T12:22:02;1.90;99.90
73586;DHT22;61865;50.232;18.614;2022-11-20T12:24:49;1.90;99.90
73586;DHT22;61865;50.232;18.614;2022-11-20T12:27:36;1.80;99.90
73586;DHT22;61865;50.232;18.614;2022-11-20T12:30:02;1.80;99.90
73586;DHT22;61865;50.232;18.614;2022-11-20T12:32:37;1.80;99.90
73586;DHT22;61865;50.232;18.614;2022-11-20T12:35:06;1.80;99.90
73586;DHT22;61865;50.232;18.614;2022-11-20T12:37:39;1.80;99.90
73586;DHT22;61865;50.232;18.614;2022-11-20T12:40:17;1.80;99.90
73586;DHT22;61865;50.232;18.614;2022-11-20T12:42:52;1.90;99.90
73586;DHT22;61865;50.232;18.614;2022-11-20T12:46:16;1.80;99.90
73586;DHT22;61865;50.232;18.614;2022-11-20T12:51:47;1.80;99.90
73586;DHT22;61865;50.232;18.614;2022-11-20T12:54:31;1.90;99.90
73586;DHT22;61865;50.232;18.614;2022-11-20T12:57:00;1.80;99.90
73586;DHT22;61865;50.232;18.614;2022-11-20T12:59:46;1.90;99.90
73586;DHT22;61865;50.232;18.614;2022-11-20T13:02:22;1.90;99.90
73586;DHT22;61865;50.232;18.614;2022-11-20T13:04:58;1.90;99.90
73586;DHT22;61865;50.232;18.614;2022-11-20T13:07:24;1.90;99.90
73586;DHT22;61865;50.232;18.614;2022-11-20T13:09:50;2.00;99.90
73586;DHT22;61865;50.232;18.614;2022-11-20T13:12:15;2.00;99.90
73586;DHT22;61865;50.232;18.614;2022-11-20T13:14:44;2.00;99.90
73586;DHT22;61865;50.232;18.614;2022-11-20T13:17:14;2.00;99.90
73586;DHT22;61865;50.232;18.614;2022-11-20T13:19:39;2.00;99.90
73586;DHT22;61865;50.232;18.614;2022-11-20T13:22:01;1.90;99.90
73586;DHT22;61865;50.232;18.614;2022-11-20T13:24:25;2.00;99.90
73586;DHT22;61865;50.232;18.614;2022-11-20T13:27:00;2.00;99.90
73586;DHT22;61865;50.232;18.614;2022-11-20T13:29:22;2.00;99.90
73586;DHT22;61865;50.232;18.614;2022-11-20T13:31:45;2.00;99.90
73586;DHT22;61865;50.232;18.614;2022-11-20T13:34:13;2.00;99.90
73586;DHT22;61865;50.232;18.614;2022-11-20T13:36:50;2.10;99.90
73586;DHT22;61865;50.232;18.614;2022-11-20T13:39:12;2.10;99.90
73586;DHT22;61865;50.232;18.614;2022-11-20T13:41:55;2.20;99.90
73586;DHT22;61865;50.232;18.614;2022-11-20T13:44:25;2.30;99.90
73586;DHT22;61865;50.232;18.614;2022-11-20T13:46:47;2.30;99.90
73586;DHT22;61865;50.232;18.614;2022-11-20T13:49:14;2.20;99.90
73586;DHT22;61865;50.232;18.614;2022-11-20T13:51:42;2.10;99.90
73586;DHT22;61865;50.232;18.614;2022-11-20T13:54:28;2.00;99.90
73586;DHT22;61865;50.232;18.614;2022-11-20T13:57:02;2.00;99.90
73586;DHT22;61865;50.232;18.614;2022-11-20T13:59:42;2.00;99.90
73586;DHT22;61865;50.232;18.614;2022-11-20T14:02:11;2.10;99.90
73586;DHT22;61865;50.232;18.614;2022-11-20T14:04:36;2.00;99.90
73586;DHT22;61865;50.232;18.614;2022-11-20T14:06:59;2.00;99.90
73586;DHT22;61865;50.232;18.614;2022-11-20T14:09:26;2.00;99.90
73586;DHT22;61865;50.232;18.614;2022-11-20T14:11:49;1.90;99.90
73586;DHT22;61865;50.232;18.614;2022-11-20T14:14:16;1.90;99.90
73586;DHT22;61865;50.232;18.614;2022-11-20T14:16:39;1.90;99.90
73586;DHT22;61865;50.232;18.614;2022-11-20T14:19:26;1.80;99.90
73586;DHT22;61865;50.232;18.614;2022-11-20T14:21:51;1.80;99.90
73586;DHT22;61865;50.232;18.614;2022-11-20T14:24:14;1.80;99.90
73586;DHT22;61865;50.232;18.614;2022-11-20T14:26:42;1.80;99.90
73586;DHT22;61865;50.232;18.614;2022-11-20T14:29:04;1.80;99.90
73586;DHT22;61865;50.232;18.614;2022-11-20T14:31:28;1.80;99.90
73586;DHT22;61865;50.232;18.614;2022-11-20T14:33:50;1.80;99.90
73586;DHT22;61865;50.232;18.614;2022-11-20T14:36:17;1.80;99.90
73586;DHT22;61865;50.232;18.614;2022-11-20T14:38:39;1.80;99.90
73586;DHT22;61865;50.232;18.614;2022-11-20T14:41:07;1.80;99.90
73586;DHT22;61865;50.232;18.614;2022-11-20T14:43:29;1.80;99.90
73586;DHT22;61865;50.232;18.614;2022-11-20T14:45:59;1.80;99.90
73586;DHT22;61865;50.232;18.614;2022-11-20T14:48:27;1.70;99.90
73586;DHT22;61865;50.232;18.614;2022-11-20T14:50:50;1.80;99.90
73586;DHT22;61865;50.232;18.614;2022-11-20T14:53:22;1.80;99.90
73586;DHT22;61865;50.232;18.614;2022-11-20T14:55:44;1.80;99.90
73586;DHT22;61865;50.232;18.614;2022-11-20T14:58:22;1.80;99.90
73586;DHT22;61865;50.232;18.614;2022-11-20T15:00:53;1.80;99.90
73586;DHT22;61865;50.232;18.614;2022-11-20T15:03:15;1.80;99.90
73586;DHT22;61865;50.232;18.614;2022-11-20T15:05:48;1.70;99.90
73586;DHT22;61865;50.232;18.614;2022-11-20T15:08:10;1.80;99.90
73586;DHT22;61865;50.232;18.614;2022-11-20T15:10:32;1.80;99.90